sensor_id;sensor_type;location;lat;lon;timestamp;P1;durP1;ratioP1;P2;durP2;ratioP2
78453;SDS011;67750;55.832;49.124;2024-02-26T00:00:24;11.18;;;2.67;;
78453;SDS011;67750;55.832;49.124;2024-02-26T00:02:53;4.90;;;2.10;;
78453;SDS011;67750;55.832;49.124;2024-02-26T00:05:23;4.42;;;1.75;;
78453;SDS011;67750;55.832;49.124;2024-02-26T00:07:52;4.97;;;2.12;;
78453;SDS011;67750;55.832;49.124;2024-02-26T00:10:23;4.80;;;2.00;;
78453;SDS011;67750;55.832;49.124;2024-02-26T00:12:52;6.55;;;2.30;;
78453;SDS011;67750;55.832;49.124;2024-02-26T00:15:22;4.22;;;2.12;;
78453;SDS011;67750;55.832;49.124;2024-02-26T00:17:52;4.53;;;2.40;;
78453;SDS011;67750;55.832;49.124;2024-02-26T00:20:21;4.47;;;2.45;;
78453;SDS011;67750;55.832;49.124;2024-02-26T00:22:51;6.65;;;2.10;;
78453;SDS011;67750;55.832;49.124;2024-02-26T00:25:20;7.62;;;2.80;;
78453;SDS011;67750;55.832;49.124;2024-02-26T00:27:50;4.65;;;2.17;;
78453;SDS011;67750;55.832;49.124;2024-02-26T00:30:19;5.70;;;2.37;;
78453;SDS011;67750;55.832;49.124;2024-02-26T00:32:50;3.90;;;1.82;;
78453;SDS011;67750;55.832;49.124;2024-02-26T00:35:19;5.72;;;2.42;;
78453;SDS011;67750;55.832;49.124;2024-02-26T00:37:49;5.60;;;2.27;;
78453;SDS011;67750;55.832;49.124;2024-02-26T00:40:18;5.78;;;2.00;;
78453;SDS011;67750;55.832;49.124;2024-02-26T00:42:48;5.65;;;2.00;;
78453;SDS011;67750;55.832;49.124;2024-02-26T00:45:17;6.28;;;2.75;;
78453;SDS011;67750;55.832;49.124;2024-02-26T00:47:47;4.97;;;1.70;;
78453;SDS011;67750;55.832;49.124;2024-02-26T00:50:16;6.15;;;2.12;;
78453;SDS011;67750;55.832;49.124;2024-02-26T00:52:46;6.42;;;2.67;;
78453;SDS011;67750;55.832;49.124;2024-02-26T00:55:15;4.95;;;2.20;;
78453;SDS011;67750;55.832;49.124;2024-02-26T00:57:46;6.40;;;2.47;;
78453;SDS011;67750;55.832;49.124;2024-02-26T01:00:16;5.12;;;2.22;;
78453;SDS011;67750;55.832;49.124;2024-02-26T01:02:45;5.10;;;2.15;;
78453;SDS011;67750;55.832;49.124;2024-02-26T01:05:15;6.20;;;2.50;;
78453;SDS011;67750;55.832;49.124;2024-02-26T01:07:44;6.95;;;2.25;;
78453;SDS011;67750;55.832;49.124;2024-02-26T01:10:14;5.45;;;2.52;;
78453;SDS011;67750;55.832;49.124;2024-02-26T01:12:43;6.85;;;2.60;;
78453;SDS011;67750;55.832;49.124;2024-02-26T01:15:13;5.95;;;2.35;;
78453;SDS011;67750;55.832;49.124;2024-02-26T01:17:42;4.42;;;1.70;;
78453;SDS011;67750;55.832;49.124;2024-02-26T01:20:12;5.50;;;2.35;;
78453;SDS011;67750;55.832;49.124;2024-02-26T01:22:42;5.83;;;2.30;;
78453;SDS011;67750;55.832;49.124;2024-02-26T01:25:12;3.87;;;1.72;;
78453;SDS011;67750;55.832;49.124;2024-02-26T01:27:42;3.85;;;1.57;;
78453;SDS011;67750;55.832;49.124;2024-02-26T01:30:12;3.83;;;2.05;;
78453;SDS011;67750;55.832;49.124;2024-02-26T01:32:43;6.45;;;1.80;;
78453;SDS011;67750;55.832;49.124;2024-02-26T01:35:13;5.72;;;1.57;;
78453;SDS011;67750;55.832;49.124;2024-02-26T01:37:43;4.10;;;1.80;;
78453;SDS011;67750;55.832;49.124;2024-02-26T01:40:12;7.20;;;2.50;;
78453;SDS011;67750;55.832;49.124;2024-02-26T01:43:02;5.17;;;1.90;;
78453;SDS011;67750;55.832;49.124;2024-02-26T01:45:31;4.28;;;1.82;;
78453;SDS011;67750;55.832;49.124;2024-02-26T01:48:01;5.80;;;2.30;;
78453;SDS011;67750;55.832;49.124;2024-02-26T01:50:30;4.30;;;2.40;;
78453;SDS011;67750;55.832;49.124;2024-02-26T01:53:01;6.05;;;2.08;;
78453;SDS011;67750;55.832;49.124;2024-02-26T01:55:30;5.20;;;2.00;;
78453;SDS011;67750;55.832;49.124;2024-02-26T01:58:00;6.53;;;2.08;;
78453;SDS011;67750;55.832;49.124;2024-02-26T02:00:30;4.42;;;2.17;;
78453;SDS011;67750;55.832;49.124;2024-02-26T02:03:00;6.92;;;2.22;;
78453;SDS011;67750;55.832;49.124;2024-02-26T02:05:31;7.12;;;2.22;;
78453;SDS011;67750;55.832;49.124;2024-02-26T02:08:00;4.10;;;1.87;;
78453;SDS011;67750;55.832;49.124;2024-02-26T02:10:31;6.92;;;2.75;;
78453;SDS011;67750;55.832;49.124;2024-02-26T02:13:00;5.78;;;2.47;;
78453;SDS011;67750;55.832;49.124;2024-02-26T02:15:30;6.17;;;2.47;;
78453;SDS011;67750;55.832;49.124;2024-02-26T02:18:00;2.80;;;1.42;;
78453;SDS011;67750;55.832;49.124;2024-02-26T02:23:19;4.85;;;1.95;;
78453;SDS011;67750;55.832;49.124;2024-02-26T02:25:49;3.87;;;1.82;;
78453;SDS011;67750;55.832;49.124;2024-02-26T02:28:18;7.78;;;2.58;;
78453;SDS011;67750;55.832;49.124;2024-02-26T02:30:48;5.65;;;1.85;;
78453;SDS011;67750;55.832;49.124;2024-02-26T02:33:17;4.80;;;1.85;;
78453;SDS011;67750;55.832;49.124;2024-02-26T02:35:47;6.10;;;2.02;;
78453;SDS011;67750;55.832;49.124;2024-02-26T02:38:17;2.12;;;1.35;;
78453;SDS011;67750;55.832;49.124;2024-02-26T02:40:47;3.02;;;1.40;;
78453;SDS011;67750;55.832;49.124;2024-02-26T02:43:17;4.92;;;1.42;;
78453;SDS011;67750;55.832;49.124;2024-02-26T02:45:46;4.65;;;1.98;;
78453;SDS011;67750;55.832;49.124;2024-02-26T02:48:15;5.92;;;2.05;;
78453;SDS011;67750;55.832;49.124;2024-02-26T02:50:45;3.37;;;1.35;;
78453;SDS011;67750;55.832;49.124;2024-02-26T02:53:15;4.67;;;2.17;;
78453;SDS011;67750;55.832;49.124;2024-02-26T02:55:45;5.30;;;1.98;;
78453;SDS011;67750;55.832;49.124;2024-02-26T02:58:15;5.65;;;1.92;;
78453;SDS011;67750;55.832;49.124;2024-02-26T03:00:44;4.65;;;2.00;;
78453;SDS011;67750;55.832;49.124;2024-02-26T03:03:14;3.75;;;2.00;;
78453;SDS011;67750;55.832;49.124;2024-02-26T03:05:43;6.42;;;2.05;;
78453;SDS011;67750;55.832;49.124;2024-02-26T03:08:13;5.50;;;1.95;;
78453;SDS011;67750;55.832;49.124;2024-02-26T03:10:42;5.22;;;2.30;;
78453;SDS011;67750;55.832;49.124;2024-02-26T03:13:12;2.67;;;1.30;;
78453;SDS011;67750;55.832;49.124;2024-02-26T03:15:42;2.10;;;1.02;;
78453;SDS011;67750;55.832;49.124;2024-02-26T03:18:12;2.85;;;1.27;;
78453;SDS011;67750;55.832;49.124;2024-02-26T03:20:41;7.15;;;2.33;;
78453;SDS011;67750;55.832;49.124;2024-02-26T03:23:11;7.72;;;2.72;;
78453;SDS011;67750;55.832;49.124;2024-02-26T03:25:42;5.53;;;2.22;;
78453;SDS011;67750;55.832;49.124;2024-02-26T03:28:13;4.47;;;2.27;;
78453;SDS011;67750;55.832;49.124;2024-02-26T03:30:43;7.65;;;2.25;;
78453;SDS011;67750;55.832;49.124;2024-02-26T03:33:12;5.65;;;2.08;;
78453;SDS011;67750;55.832;49.124;2024-02-26T03:35:42;4.92;;;1.72;;
78453;SDS011;67750;55.832;49.124;2024-02-26T03:38:12;5.92;;;2.77;;
78453;SDS011;67750;55.832;49.124;2024-02-26T03:40:41;4.60;;;2.12;;
78453;SDS011;67750;55.832;49.124;2024-02-26T03:43:11;6.03;;;1.85;;
78453;SDS011;67750;55.832;49.124;2024-02-26T03:45:40;8.35;;;2.60;;
78453;SDS011;67750;55.832;49.124;2024-02-26T03:48:10;5.22;;;1.98;;
78453;SDS011;67750;55.832;49.124;2024-02-26T03:50:39;4.00;;;2.08;;
78453;SDS011;67750;55.832;49.124;2024-02-26T03:53:09;5.08;;;2.30;;
78453;SDS011;67750;55.832;49.124;2024-02-26T03:55:39;4.47;;;1.90;;
78453;SDS011;67750;55.832;49.124;2024-02-26T03:58:09;4.28;;;2.15;;
78453;SDS011;67750;55.832;49.124;2024-02-26T04:00:40;5.47;;;2.10;;
78453;SDS011;67750;55.832;49.124;2024-02-26T04:03:10;5.17;;;1.40;;
78453;SDS011;67750;55.832;49.124;2024-02-26T04:05:39;4.25;;;1.82;;
78453;SDS011;67750;55.832;49.124;2024-02-26T04:08:09;8.43;;;2.37;;
78453;SDS011;67750;55.832;49.124;2024-02-26T04:10:38;7.33;;;2.55;;
78453;SDS011;67750;55.832;49.124;2024-02-26T04:13:08;3.27;;;1.75;;
78453;SDS011;67750;55.832;49.124;2024-02-26T04:15:37;4.70;;;1.75;;
78453;SDS011;67750;55.832;49.124;2024-02-26T04:18:07;5.42;;;2.25;;
78453;SDS011;67750;55.832;49.124;2024-02-26T04:20:36;4.65;;;2.30;;
78453;SDS011;67750;55.832;49.124;2024-02-26T04:23:08;6.10;;;2.40;;
78453;SDS011;67750;55.832;49.124;2024-02-26T04:25:37;3.85;;;1.00;;
78453;SDS011;67750;55.832;49.124;2024-02-26T04:28:07;5.12;;;1.90;;
78453;SDS011;67750;55.832;49.124;2024-02-26T04:30:36;6.67;;;2.30;;
78453;SDS011;67750;55.832;49.124;2024-02-26T04:33:06;4.05;;;1.85;;
78453;SDS011;67750;55.832;49.124;2024-02-26T04:35:35;5.08;;;2.27;;
78453;SDS011;67750;55.832;49.124;2024-02-26T04:38:05;4.55;;;2.30;;
78453;SDS011;67750;55.832;49.124;2024-02-26T04:40:34;5.17;;;2.40;;
78453;SDS011;67750;55.832;49.124;2024-02-26T04:43:04;3.30;;;1.70;;
78453;SDS011;67750;55.832;49.124;2024-02-26T04:45:33;9.13;;;2.95;;
78453;SDS011;67750;55.832;49.124;2024-02-26T04:48:03;3.85;;;2.05;;
78453;SDS011;67750;55.832;49.124;2024-02-26T04:50:33;10.75;;;2.77;;
78453;SDS011;67750;55.832;49.124;2024-02-26T04:53:02;5.12;;;2.50;;
78453;SDS011;67750;55.832;49.124;2024-02-26T04:55:32;5.03;;;2.52;;
78453;SDS011;67750;55.832;49.124;2024-02-26T04:58:02;4.35;;;2.10;;
78453;SDS011;67750;55.832;49.124;2024-02-26T05:00:31;4.75;;;2.52;;
78453;SDS011;67750;55.832;49.124;2024-02-26T05:03:01;5.97;;;2.40;;
78453;SDS011;67750;55.832;49.124;2024-02-26T05:05:30;5.15;;;2.20;;
78453;SDS011;67750;55.832;49.124;2024-02-26T05:08:00;4.47;;;2.50;;
78453;SDS011;67750;55.832;49.124;2024-02-26T05:10:30;4.55;;;2.30;;
78453;SDS011;67750;55.832;49.124;2024-02-26T05:12:59;4.75;;;1.82;;
78453;SDS011;67750;55.832;49.124;2024-02-26T05:15:29;5.53;;;2.40;;
78453;SDS011;67750;55.832;49.124;2024-02-26T05:17:59;4.08;;;2.00;;
78453;SDS011;67750;55.832;49.124;2024-02-26T05:20:29;5.92;;;2.17;;
78453;SDS011;67750;55.832;49.124;2024-02-26T05:23:00;4.30;;;2.27;;
78453;SDS011;67750;55.832;49.124;2024-02-26T05:25:30;4.72;;;2.22;;
78453;SDS011;67750;55.832;49.124;2024-02-26T05:28:00;6.62;;;2.37;;
78453;SDS011;67750;55.832;49.124;2024-02-26T05:30:29;4.67;;;2.40;;
78453;SDS011;67750;55.832;49.124;2024-02-26T05:32:59;4.20;;;2.37;;
78453;SDS011;67750;55.832;49.124;2024-02-26T05:35:28;7.05;;;2.42;;
78453;SDS011;67750;55.832;49.124;2024-02-26T05:37:58;5.78;;;2.65;;
78453;SDS011;67750;55.832;49.124;2024-02-26T05:40:27;5.70;;;2.50;;
78453;SDS011;67750;55.832;49.124;2024-02-26T05:55:46;5.83;;;2.83;;
78453;SDS011;67750;55.832;49.124;2024-02-26T05:58:15;5.92;;;2.62;;
78453;SDS011;67750;55.832;49.124;2024-02-26T06:00:45;6.10;;;2.55;;
78453;SDS011;67750;55.832;49.124;2024-02-26T06:03:14;4.28;;;2.25;;
78453;SDS011;67750;55.832;49.124;2024-02-26T06:05:44;4.90;;;2.25;;
78453;SDS011;67750;55.832;49.124;2024-02-26T06:08:13;8.48;;;2.80;;
78453;SDS011;67750;55.832;49.124;2024-02-26T06:10:43;9.15;;;2.80;;
78453;SDS011;67750;55.832;49.124;2024-02-26T06:13:12;7.28;;;2.80;;
78453;SDS011;67750;55.832;49.124;2024-02-26T06:18:13;6.50;;;2.65;;
78453;SDS011;67750;55.832;49.124;2024-02-26T06:20:43;6.58;;;3.17;;
78453;SDS011;67750;55.832;49.124;2024-02-26T06:23:13;4.97;;;2.40;;
78453;SDS011;67750;55.832;49.124;2024-02-26T06:25:43;5.15;;;2.40;;
78453;SDS011;67750;55.832;49.124;2024-02-26T06:28:14;5.00;;;2.27;;
78453;SDS011;67750;55.832;49.124;2024-02-26T06:30:43;6.80;;;2.45;;
78453;SDS011;67750;55.832;49.124;2024-02-26T06:33:13;5.20;;;2.40;;
78453;SDS011;67750;55.832;49.124;2024-02-26T06:35:42;7.95;;;3.33;;
78453;SDS011;67750;55.832;49.124;2024-02-26T06:38:12;7.35;;;3.22;;
78453;SDS011;67750;55.832;49.124;2024-02-26T06:40:42;4.95;;;2.65;;
78453;SDS011;67750;55.832;49.124;2024-02-26T06:43:11;5.72;;;2.77;;
78453;SDS011;67750;55.832;49.124;2024-02-26T06:45:41;8.60;;;3.08;;
78453;SDS011;67750;55.832;49.124;2024-02-26T06:48:10;6.15;;;3.17;;
78453;SDS011;67750;55.832;49.124;2024-02-26T06:50:40;9.65;;;3.67;;
78453;SDS011;67750;55.832;49.124;2024-02-26T06:53:09;4.80;;;3.05;;
78453;SDS011;67750;55.832;49.124;2024-02-26T06:55:39;7.25;;;2.45;;
78453;SDS011;67750;55.832;49.124;2024-02-26T06:58:09;5.47;;;2.80;;
78453;SDS011;67750;55.832;49.124;2024-02-26T07:00:38;5.78;;;2.85;;
78453;SDS011;67750;55.832;49.124;2024-02-26T07:03:07;6.22;;;3.00;;
78453;SDS011;67750;55.832;49.124;2024-02-26T07:05:37;5.72;;;3.25;;
78453;SDS011;67750;55.832;49.124;2024-02-26T07:08:07;6.65;;;3.27;;
78453;SDS011;67750;55.832;49.124;2024-02-26T07:10:36;5.53;;;2.87;;
78453;SDS011;67750;55.832;49.124;2024-02-26T07:13:06;8.30;;;3.47;;
78453;SDS011;67750;55.832;49.124;2024-02-26T07:15:35;7.60;;;3.12;;
78453;SDS011;67750;55.832;49.124;2024-02-26T07:18:05;5.92;;;3.25;;
78453;SDS011;67750;55.832;49.124;2024-02-26T07:20:34;6.40;;;3.02;;
78453;SDS011;67750;55.832;49.124;2024-02-26T07:23:04;8.53;;;3.50;;
78453;SDS011;67750;55.832;49.124;2024-02-26T07:25:33;7.55;;;3.45;;
78453;SDS011;67750;55.832;49.124;2024-02-26T07:28:03;11.20;;;3.40;;
78453;SDS011;67750;55.832;49.124;2024-02-26T07:30:33;10.32;;;4.28;;
78453;SDS011;67750;55.832;49.124;2024-02-26T07:33:03;7.78;;;3.58;;
78453;SDS011;67750;55.832;49.124;2024-02-26T07:35:33;9.28;;;3.62;;
78453;SDS011;67750;55.832;49.124;2024-02-26T07:38:03;9.10;;;4.17;;
78453;SDS011;67750;55.832;49.124;2024-02-26T07:40:33;10.98;;;4.17;;
78453;SDS011;67750;55.832;49.124;2024-02-26T07:43:03;5.95;;;3.10;;
78453;SDS011;67750;55.832;49.124;2024-02-26T07:45:33;7.03;;;3.37;;
78453;SDS011;67750;55.832;49.124;2024-02-26T07:48:03;8.48;;;3.60;;
78453;SDS011;67750;55.832;49.124;2024-02-26T07:50:33;5.67;;;2.98;;
78453;SDS011;67750;55.832;49.124;2024-02-26T07:53:03;8.28;;;3.92;;
78453;SDS011;67750;55.832;49.124;2024-02-26T07:55:32;7.45;;;3.52;;
78453;SDS011;67750;55.832;49.124;2024-02-26T07:58:02;8.63;;;3.50;;
78453;SDS011;67750;55.832;49.124;2024-02-26T08:00:31;10.68;;;3.50;;
78453;SDS011;67750;55.832;49.124;2024-02-26T08:03:01;5.25;;;2.72;;
78453;SDS011;67750;55.832;49.124;2024-02-26T08:05:30;6.87;;;3.15;;
78453;SDS011;67750;55.832;49.124;2024-02-26T08:08:00;7.72;;;3.22;;
78453;SDS011;67750;55.832;49.124;2024-02-26T08:10:29;7.47;;;3.33;;
78453;SDS011;67750;55.832;49.124;2024-02-26T08:12:59;8.75;;;3.80;;
78453;SDS011;67750;55.832;49.124;2024-02-26T08:18:20;10.70;;;4.10;;
78453;SDS011;67750;55.832;49.124;2024-02-26T08:20:49;8.80;;;4.28;;
78453;SDS011;67750;55.832;49.124;2024-02-26T08:23:18;9.60;;;3.80;;
78453;SDS011;67750;55.832;49.124;2024-02-26T08:25:49;9.00;;;4.17;;
78453;SDS011;67750;55.832;49.124;2024-02-26T08:28:19;13.43;;;4.45;;
78453;SDS011;67750;55.832;49.124;2024-02-26T08:30:48;9.88;;;4.03;;
78453;SDS011;67750;55.832;49.124;2024-02-26T08:33:17;13.05;;;4.35;;
78453;SDS011;67750;55.832;49.124;2024-02-26T08:35:47;9.98;;;4.47;;
78453;SDS011;67750;55.832;49.124;2024-02-26T08:38:16;5.65;;;2.77;;
78453;SDS011;67750;55.832;49.124;2024-02-26T08:40:46;9.90;;;4.05;;
78453;SDS011;67750;55.832;49.124;2024-02-26T08:43:15;5.60;;;2.45;;
78453;SDS011;67750;55.832;49.124;2024-02-26T08:45:46;6.62;;;2.60;;
78453;SDS011;67750;55.832;49.124;2024-02-26T08:48:15;8.23;;;3.33;;
78453;SDS011;67750;55.832;49.124;2024-02-26T08:50:45;6.60;;;2.45;;
78453;SDS011;67750;55.832;49.124;2024-02-26T08:53:14;7.15;;;3.22;;
78453;SDS011;67750;55.832;49.124;2024-02-26T08:55:44;10.38;;;4.08;;
78453;SDS011;67750;55.832;49.124;2024-02-26T08:58:13;9.88;;;3.80;;
78453;SDS011;67750;55.832;49.124;2024-02-26T09:00:42;8.25;;;2.87;;
78453;SDS011;67750;55.832;49.124;2024-02-26T09:03:12;8.23;;;3.20;;
78453;SDS011;67750;55.832;49.124;2024-02-26T09:05:42;8.75;;;2.60;;
78453;SDS011;67750;55.832;49.124;2024-02-26T09:08:11;5.28;;;2.60;;
78453;SDS011;67750;55.832;49.124;2024-02-26T09:10:41;7.47;;;2.17;;
78453;SDS011;67750;55.832;49.124;2024-02-26T09:13:11;4.83;;;2.05;;
78453;SDS011;67750;55.832;49.124;2024-02-26T09:15:40;6.17;;;2.30;;
78453;SDS011;67750;55.832;49.124;2024-02-26T09:18:10;4.60;;;2.10;;
78453;SDS011;67750;55.832;49.124;2024-02-26T09:20:40;6.30;;;2.40;;
78453;SDS011;67750;55.832;49.124;2024-02-26T09:23:09;3.67;;;1.15;;
78453;SDS011;67750;55.832;49.124;2024-02-26T09:25:39;3.58;;;1.60;;
78453;SDS011;67750;55.832;49.124;2024-02-26T09:28:08;10.28;;;2.02;;
78453;SDS011;67750;55.832;49.124;2024-02-26T09:30:38;2.70;;;1.42;;
78453;SDS011;67750;55.832;49.124;2024-02-26T09:33:07;5.47;;;1.62;;
78453;SDS011;67750;55.832;49.124;2024-02-26T09:35:37;2.98;;;1.70;;
78453;SDS011;67750;55.832;49.124;2024-02-26T09:38:06;5.90;;;2.22;;
78453;SDS011;67750;55.832;49.124;2024-02-26T09:40:36;5.67;;;2.10;;
78453;SDS011;67750;55.832;49.124;2024-02-26T09:43:05;3.90;;;1.35;;
78453;SDS011;67750;55.832;49.124;2024-02-26T09:45:36;6.37;;;2.02;;
78453;SDS011;67750;55.832;49.124;2024-02-26T09:48:06;5.72;;;2.20;;
78453;SDS011;67750;55.832;49.124;2024-02-26T09:50:37;5.58;;;2.60;;
78453;SDS011;67750;55.832;49.124;2024-02-26T09:53:06;5.62;;;2.37;;
78453;SDS011;67750;55.832;49.124;2024-02-26T09:55:37;7.62;;;3.20;;
78453;SDS011;67750;55.832;49.124;2024-02-26T09:58:07;9.83;;;3.10;;
78453;SDS011;67750;55.832;49.124;2024-02-26T10:00:37;6.25;;;2.47;;
78453;SDS011;67750;55.832;49.124;2024-02-26T10:03:08;7.95;;;2.40;;
78453;SDS011;67750;55.832;49.124;2024-02-26T10:05:39;4.92;;;2.77;;
78453;SDS011;67750;55.832;49.124;2024-02-26T10:08:09;7.72;;;2.95;;
78453;SDS011;67750;55.832;49.124;2024-02-26T10:10:40;5.50;;;2.37;;
78453;SDS011;67750;55.832;49.124;2024-02-26T10:13:09;9.68;;;3.58;;
78453;SDS011;67750;55.832;49.124;2024-02-26T10:15:39;6.35;;;3.10;;
78453;SDS011;67750;55.832;49.124;2024-02-26T10:18:09;6.05;;;2.85;;
78453;SDS011;67750;55.832;49.124;2024-02-26T10:20:38;6.45;;;2.45;;
78453;SDS011;67750;55.832;49.124;2024-02-26T10:23:08;7.70;;;2.02;;
78453;SDS011;67750;55.832;49.124;2024-02-26T10:25:37;12.55;;;3.87;;
78453;SDS011;67750;55.832;49.124;2024-02-26T10:28:09;6.97;;;3.12;;
78453;SDS011;67750;55.832;49.124;2024-02-26T10:30:39;8.30;;;3.35;;
78453;SDS011;67750;55.832;49.124;2024-02-26T10:33:09;10.60;;;3.80;;
78453;SDS011;67750;55.832;49.124;2024-02-26T10:35:39;12.80;;;4.12;;
78453;SDS011;67750;55.832;49.124;2024-02-26T10:38:08;11.30;;;4.50;;
78453;SDS011;67750;55.832;49.124;2024-02-26T10:40:38;8.28;;;3.65;;
78453;SDS011;67750;55.832;49.124;2024-02-26T10:43:07;13.43;;;4.75;;
78453;SDS011;67750;55.832;49.124;2024-02-26T10:45:37;8.40;;;3.92;;
78453;SDS011;67750;55.832;49.124;2024-02-26T10:50:57;14.18;;;5.00;;
78453;SDS011;67750;55.832;49.124;2024-02-26T10:53:28;14.20;;;4.42;;
78453;SDS011;67750;55.832;49.124;2024-02-26T10:56:29;15.78;;;5.00;;
78453;SDS011;67750;55.832;49.124;2024-02-26T10:58:31;10.78;;;4.67;;
78453;SDS011;67750;55.832;49.124;2024-02-26T11:01:00;11.75;;;4.87;;
78453;SDS011;67750;55.832;49.124;2024-02-26T11:03:30;8.20;;;4.33;;
78453;SDS011;67750;55.832;49.124;2024-02-26T11:06:01;8.78;;;3.80;;
78453;SDS011;67750;55.832;49.124;2024-02-26T11:08:31;10.10;;;4.10;;
78453;SDS011;67750;55.832;49.124;2024-02-26T11:11:01;6.47;;;2.90;;
78453;SDS011;67750;55.832;49.124;2024-02-26T11:13:30;10.35;;;4.55;;
78453;SDS011;67750;55.832;49.124;2024-02-26T11:16:00;13.85;;;3.90;;
78453;SDS011;67750;55.832;49.124;2024-02-26T11:18:30;8.95;;;4.15;;
78453;SDS011;67750;55.832;49.124;2024-02-26T11:21:00;11.00;;;4.12;;
78453;SDS011;67750;55.832;49.124;2024-02-26T11:23:30;13.62;;;4.75;;
78453;SDS011;67750;55.832;49.124;2024-02-26T11:26:02;17.10;;;6.75;;
78453;SDS011;67750;55.832;49.124;2024-02-26T11:28:33;10.35;;;4.60;;
78453;SDS011;67750;55.832;49.124;2024-02-26T11:31:03;18.10;;;8.45;;
78453;SDS011;67750;55.832;49.124;2024-02-26T11:33:34;26.12;;;9.75;;
78453;SDS011;67750;55.832;49.124;2024-02-26T11:38:54;16.02;;;4.80;;
78453;SDS011;67750;55.832;49.124;2024-02-26T11:41:24;10.40;;;4.42;;
78453;SDS011;67750;55.832;49.124;2024-02-26T11:46:44;10.08;;;4.78;;
78453;SDS011;67750;55.832;49.124;2024-02-26T11:52:06;6.83;;;3.52;;
78453;SDS011;67750;55.832;49.124;2024-02-26T12:00:16;9.20;;;3.83;;
78453;SDS011;67750;55.832;49.124;2024-02-26T12:02:47;8.50;;;3.65;;
78453;SDS011;67750;55.832;49.124;2024-02-26T12:05:38;9.23;;;3.92;;
78453;SDS011;67750;55.832;49.124;2024-02-26T12:08:08;7.85;;;3.60;;
78453;SDS011;67750;55.832;49.124;2024-02-26T12:10:38;6.72;;;2.87;;
78453;SDS011;67750;55.832;49.124;2024-02-26T12:15:58;8.50;;;3.77;;
78453;SDS011;67750;55.832;49.124;2024-02-26T12:18:28;7.17;;;2.83;;
78453;SDS011;67750;55.832;49.124;2024-02-26T12:20:58;6.15;;;3.22;;
78453;SDS011;67750;55.832;49.124;2024-02-26T12:23:28;5.85;;;3.55;;
78453;SDS011;67750;55.832;49.124;2024-02-26T12:25:58;7.72;;;2.87;;
78453;SDS011;67750;55.832;49.124;2024-02-26T12:28:48;5.95;;;2.67;;
78453;SDS011;67750;55.832;49.124;2024-02-26T12:31:17;8.45;;;3.15;;
78453;SDS011;67750;55.832;49.124;2024-02-26T12:33:47;7.83;;;3.83;;
78453;SDS011;67750;55.832;49.124;2024-02-26T12:36:16;9.35;;;3.72;;
78453;SDS011;67750;55.832;49.124;2024-02-26T12:38:46;15.35;;;3.90;;
78453;SDS011;67750;55.832;49.124;2024-02-26T12:41:16;8.65;;;4.05;;
78453;SDS011;67750;55.832;49.124;2024-02-26T12:43:45;10.25;;;3.65;;
78453;SDS011;67750;55.832;49.124;2024-02-26T12:46:15;11.53;;;3.95;;
78453;SDS011;67750;55.832;49.124;2024-02-26T12:48:46;7.08;;;3.60;;
78453;SDS011;67750;55.832;49.124;2024-02-26T12:51:16;7.15;;;3.33;;
78453;SDS011;67750;55.832;49.124;2024-02-26T12:53:45;12.10;;;3.55;;
78453;SDS011;67750;55.832;49.124;2024-02-26T12:56:17;7.55;;;2.52;;
78453;SDS011;67750;55.832;49.124;2024-02-26T12:58:47;7.15;;;3.20;;
78453;SDS011;67750;55.832;49.124;2024-02-26T13:01:17;6.70;;;2.95;;
78453;SDS011;67750;55.832;49.124;2024-02-26T13:03:47;5.28;;;2.90;;
78453;SDS011;67750;55.832;49.124;2024-02-26T13:06:18;5.12;;;2.52;;
78453;SDS011;67750;55.832;49.124;2024-02-26T13:08:49;8.08;;;3.30;;
78453;SDS011;67750;55.832;49.124;2024-02-26T13:11:19;6.97;;;3.62;;
78453;SDS011;67750;55.832;49.124;2024-02-26T13:13:48;8.85;;;3.33;;
78453;SDS011;67750;55.832;49.124;2024-02-26T13:16:18;7.12;;;2.60;;
78453;SDS011;67750;55.832;49.124;2024-02-26T13:18:47;7.60;;;3.10;;
78453;SDS011;67750;55.832;49.124;2024-02-26T13:21:17;6.83;;;2.90;;
78453;SDS011;67750;55.832;49.124;2024-02-26T13:26:17;6.40;;;2.87;;
78453;SDS011;67750;55.832;49.124;2024-02-26T13:28:58;7.70;;;2.83;;
78453;SDS011;67750;55.832;49.124;2024-02-26T13:31:19;7.05;;;2.77;;
78453;SDS011;67750;55.832;49.124;2024-02-26T13:33:49;4.05;;;2.30;;
78453;SDS011;67750;55.832;49.124;2024-02-26T13:36:21;7.62;;;2.95;;
78453;SDS011;67750;55.832;49.124;2024-02-26T13:38:52;7.67;;;2.62;;
78453;SDS011;67750;55.832;49.124;2024-02-26T13:41:22;9.03;;;2.60;;
78453;SDS011;67750;55.832;49.124;2024-02-26T13:43:51;5.25;;;2.83;;
78453;SDS011;67750;55.832;49.124;2024-02-26T13:46:21;4.78;;;2.22;;
78453;SDS011;67750;55.832;49.124;2024-02-26T13:48:50;6.35;;;3.45;;
78453;SDS011;67750;55.832;49.124;2024-02-26T13:51:21;5.40;;;2.83;;
78453;SDS011;67750;55.832;49.124;2024-02-26T13:53:51;5.60;;;2.95;;
78453;SDS011;67750;55.832;49.124;2024-02-26T13:56:21;5.72;;;3.02;;
78453;SDS011;67750;55.832;49.124;2024-02-26T13:58:50;6.40;;;2.80;;
78453;SDS011;67750;55.832;49.124;2024-02-26T14:01:19;6.75;;;3.02;;
78453;SDS011;67750;55.832;49.124;2024-02-26T14:03:49;7.10;;;2.83;;
78453;SDS011;67750;55.832;49.124;2024-02-26T14:06:20;9.25;;;2.92;;
78453;SDS011;67750;55.832;49.124;2024-02-26T14:08:50;9.48;;;3.25;;
78453;SDS011;67750;55.832;49.124;2024-02-26T14:11:19;7.10;;;3.15;;
78453;SDS011;67750;55.832;49.124;2024-02-26T14:13:49;6.15;;;3.15;;
78453;SDS011;67750;55.832;49.124;2024-02-26T14:16:19;8.05;;;2.87;;
78453;SDS011;67750;55.832;49.124;2024-02-26T14:18:48;6.08;;;2.83;;
78453;SDS011;67750;55.832;49.124;2024-02-26T14:21:18;6.87;;;2.47;;
78453;SDS011;67750;55.832;49.124;2024-02-26T14:23:47;7.85;;;3.87;;
78453;SDS011;67750;55.832;49.124;2024-02-26T14:26:17;8.13;;;3.37;;
78453;SDS011;67750;55.832;49.124;2024-02-26T14:28:47;7.35;;;3.08;;
78453;SDS011;67750;55.832;49.124;2024-02-26T14:34:07;8.68;;;2.62;;
78453;SDS011;67750;55.832;49.124;2024-02-26T14:36:36;7.08;;;2.72;;
78453;SDS011;67750;55.832;49.124;2024-02-26T14:39:06;16.85;;;3.05;;
78453;SDS011;67750;55.832;49.124;2024-02-26T14:41:37;7.00;;;2.80;;
78453;SDS011;67750;55.832;49.124;2024-02-26T14:44:06;4.87;;;1.85;;
78453;SDS011;67750;55.832;49.124;2024-02-26T14:46:36;5.92;;;2.67;;
78453;SDS011;67750;55.832;49.124;2024-02-26T14:49:06;6.60;;;2.92;;
78453;SDS011;67750;55.832;49.124;2024-02-26T14:51:35;8.75;;;2.90;;
78453;SDS011;67750;55.832;49.124;2024-02-26T14:54:05;7.62;;;2.85;;
78453;SDS011;67750;55.832;49.124;2024-02-26T14:56:34;6.50;;;2.80;;
78453;SDS011;67750;55.832;49.124;2024-02-26T14:59:04;8.85;;;3.37;;
78453;SDS011;67750;55.832;49.124;2024-02-26T15:01:33;6.03;;;2.80;;
78453;SDS011;67750;55.832;49.124;2024-02-26T15:04:03;6.97;;;2.80;;
78453;SDS011;67750;55.832;49.124;2024-02-26T15:06:33;5.03;;;2.70;;
78453;SDS011;67750;55.832;49.124;2024-02-26T15:09:02;5.92;;;1.87;;
78453;SDS011;67750;55.832;49.124;2024-02-26T15:11:32;5.12;;;2.25;;
78453;SDS011;67750;55.832;49.124;2024-02-26T15:14:01;5.90;;;3.22;;
78453;SDS011;67750;55.832;49.124;2024-02-26T15:16:31;4.55;;;2.10;;
78453;SDS011;67750;55.832;49.124;2024-02-26T15:19:00;6.12;;;2.83;;
78453;SDS011;67750;55.832;49.124;2024-02-26T15:24:22;9.28;;;3.90;;
78453;SDS011;67750;55.832;49.124;2024-02-26T15:26:52;10.82;;;3.55;;
78453;SDS011;67750;55.832;49.124;2024-02-26T15:29:21;8.15;;;3.58;;
78453;SDS011;67750;55.832;49.124;2024-02-26T15:31:51;9.10;;;3.85;;
78453;SDS011;67750;55.832;49.124;2024-02-26T15:34:21;6.65;;;3.35;;
78453;SDS011;67750;55.832;49.124;2024-02-26T15:36:50;2.77;;;1.82;;